Time;durP1;ratioP1;P1;durP2;ratioP2;P2;SDS_P1;SDS_P2;PMS_P1;PMS_P2;Temp;Humidity;BMP_temperature;BMP_pressure;BME280_temperature;BME280_humidity;BME280_pressure;Samples;Min_cycle;Max_cycle;Signal;HPM_P1;HPM_P2
2022/06/24 00:01:38;;;;;;;3.13;1.10;;;;;;;;;;5029923;28;20489;-32
2022/06/24 00:04:05;;;;;;;3.47;0.98;;;;;;;;;;5025743;28;20203;-32
2022/06/24 00:06:42;;;;;;;6.85;1.05;;;;;;;;;;5026474;28;20223;-31
2022/06/24 00:09:09;;;;;;;1.55;0.90;;;;;;;;;;5030087;28;20206;-31
2022/06/24 00:11:36;;;;;;;1.98;0.90;;;;;;;;;;5030597;28;20206;-31
2022/06/24 00:14:06;;;;;;;9.82;1.10;;;;;;;;;;5021664;28;20201;-33
2022/06/24 00:16:33;;;;;;;4.05;1.25;;;;;;;;;;5026592;28;20219;-30
2022/06/24 00:19:10;;;;;;;2.60;1.10;;;;;;;;;;5152511;22;20237;-25
2022/06/24 00:21:37;;;;;;;2.25;1.20;;;;;;;;;;5084973;28;20281;-29
2022/06/24 00:24:04;;;;;;;2.85;1.00;;;;;;;;;;5071234;28;20208;-27
2022/06/24 00:26:38;;;;;;;2.83;0.85;;;;;;;;;;5068190;28;20224;-28
2022/06/24 00:29:07;;;;;;;3.00;0.98;;;;;;;;;;5077927;28;20284;-30
2022/06/24 00:31:34;;;;;;;2.15;0.98;;;;;;;;;;5089976;28;20208;-26
2022/06/24 00:34:01;;;;;;;3.28;1.48;;;;;;;;;;5074003;28;20222;-27
2022/06/24 00:36:28;;;;;;;2.85;0.88;;;;;;;;;;5069337;28;20267;-26
2022/06/24 00:38:55;;;;;;;3.67;1.30;;;;;;;;;;5070881;28;20200;-32
2022/06/24 00:41:24;;;;;;;5.82;1.30;;;;;;;;;;5084640;28;20221;-29
2022/06/24 00:43:55;;;;;;;6.85;1.23;;;;;;;;;;5072020;28;20295;-29
2022/06/24 00:46:27;;;;;;;2.22;0.98;;;;;;;;;;5059693;28;20589;-30
2022/06/24 00:48:55;;;;;;;3.83;1.05;;;;;;;;;;5065560;28;20587;-27
2022/06/24 00:51:23;;;;;;;3.47;1.00;;;;;;;;;;5078099;28;20205;-31
2022/06/24 00:53:51;;;;;;;1.65;0.95;;;;;;;;;;5091105;28;20208;-27
2022/06/24 00:56:18;;;;;;;8.27;1.40;;;;;;;;;;5092898;28;20235;-30
2022/06/24 00:58:51;;;;;;;3.25;0.90;;;;;;;;;;5057412;28;20209;-30
2022/06/24 01:01:18;;;;;;;2.67;1.10;;;;;;;;;;5065748;28;20210;-28
2022/06/24 01:03:47;;;;;;;2.05;1.05;;;;;;;;;;5075191;28;20217;-28
2022/06/24 01:06:14;;;;;;;5.78;1.13;;;;;;;;;;5076653;28;20220;-30
2022/06/24 01:08:41;;;;;;;4.80;1.10;;;;;;;;;;5092595;28;20197;-28
2022/06/24 01:11:08;;;;;;;5.45;1.10;;;;;;;;;;5082294;28;20608;-27
2022/06/24 01:13:35;;;;;;;3.65;1.48;;;;;;;;;;5072819;28;20666;-27
2022/06/24 01:16:02;;;;;;;2.88;1.20;;;;;;;;;;5079274;28;20720;-29
2022/06/24 01:18:30;;;;;;;3.05;1.02;;;;;;;;;;5072952;28;20217;-28
2022/06/24 01:20:58;;;;;;;1.17;1.00;;;;;;;;;;5083907;28;20205;-29
2022/06/24 01:23:27;;;;;;;2.38;1.00;;;;;;;;;;5092053;28;20226;-29
2022/06/24 01:25:54;;;;;;;2.88;1.30;;;;;;;;;;5092392;28;20276;-30
2022/06/24 01:28:21;;;;;;;3.78;1.23;;;;;;;;;;5062648;28;20568;-31
2022/06/24 01:30:48;;;;;;;4.85;1.23;;;;;;;;;;5078488;28;20211;-32
2022/06/24 01:33:15;;;;;;;5.38;1.05;;;;;;;;;;5071476;28;20726;-29
2022/06/24 01:35:42;;;;;;;4.20;1.45;;;;;;;;;;5075187;28;20209;-28
2022/06/24 01:38:10;;;;;;;2.17;1.02;;;;;;;;;;5089273;28;20200;-26
2022/06/24 01:40:38;;;;;;;2.45;1.00;;;;;;;;;;5089612;28;20198;-28
2022/06/24 01:43:06;;;;;;;4.65;1.05;;;;;;;;;;5072923;28;20224;-30
2022/06/24 01:45:33;;;;;;;4.25;1.50;;;;;;;;;;5083368;28;20204;-26
2022/06/24 01:48:00;;;;;;;12.20;1.52;;;;;;;;;;5071542;28;20235;-26
2022/06/24 01:50:27;;;;;;;4.13;1.25;;;;;;;;;;5072918;28;20563;-28
2022/06/24 01:52:54;;;;;;;4.70;1.95;;;;;;;;;;5083176;28;20212;-28
2022/06/24 01:55:21;;;;;;;1.98;1.50;;;;;;;;;;5087982;28;20208;-29
2022/06/24 01:57:49;;;;;;;2.55;2.08;;;;;;;;;;5069695;28;20237;-30
2022/06/24 02:00:17;;;;;;;3.65;2.00;;;;;;;;;;5085278;28;20204;-27
2022/06/24 02:02:44;;;;;;;4.07;1.90;;;;;;;;;;5068751;28;20232;-29
2022/06/24 02:05:12;;;;;;;3.80;1.75;;;;;;;;;;5077478;28;20200;-25
2022/06/24 02:07:39;;;;;;;4.10;1.60;;;;;;;;;;5083051;28;20224;-25
2022/06/24 02:15:37;;;;;;;2.47;1.77;;;;;;;;;;5091522;28;20203;-32
2022/06/24 02:18:05;;;;;;;5.40;1.77;;;;;;;;;;5080053;28;20303;-28
2022/06/24 02:20:32;;;;;;;2.80;1.83;;;;;;;;;;5075459;28;20205;-31
2022/06/24 02:23:00;;;;;;;4.85;1.65;;;;;;;;;;5078899;28;20236;-33
2022/06/24 02:25:27;;;;;;;8.38;3.33;;;;;;;;;;5071039;28;20204;-27
2022/06/24 02:27:55;;;;;;;7.25;2.13;;;;;;;;;;5067943;28;20221;-29
2022/06/24 02:30:22;;;;;;;2.42;2.00;;;;;;;;;;5060386;28;20200;-31
2022/06/24 02:32:50;;;;;;;4.88;1.98;;;;;;;;;;5072974;28;20510;-31
2022/06/24 02:35:17;;;;;;;3.05;2.28;;;;;;;;;;5071918;28;20196;-26
2022/06/24 02:37:44;;;;;;;3.05;1.98;;;;;;;;;;5082358;28;20242;-30
2022/06/24 02:42:58;;;;;;;4.93;2.28;;;;;;;;;;5070758;28;20227;-29
2022/06/24 02:45:25;;;;;;;3.63;2.05;;;;;;;;;;5090828;28;20208;-31
2022/06/24 02:47:52;;;;;;;2.60;1.97;;;;;;;;;;5077525;28;20239;-28
2022/06/24 02:50:19;;;;;;;2.53;2.20;;;;;;;;;;5069167;28;20205;-31
2022/06/24 02:52:47;;;;;;;5.37;2.00;;;;;;;;;;5082538;28;20193;-28
2022/06/24 02:55:14;;;;;;;4.23;2.03;;;;;;;;;;5072295;28;20220;-31
2022/06/24 02:57:41;;;;;;;3.17;1.67;;;;;;;;;;5064459;28;20231;-29
2022/06/24 03:00:10;;;;;;;3.03;1.63;;;;;;;;;;5077409;28;20197;-31
2022/06/24 03:02:37;;;;;;;4.28;1.40;;;;;;;;;;5069611;28;20233;-28
2022/06/24 03:05:05;;;;;;;4.28;1.70;;;;;;;;;;5070900;28;20209;-29
2022/06/24 03:07:32;;;;;;;2.57;1.77;;;;;;;;;;5079202;28;20709;-29
2022/06/24 03:09:59;;;;;;;4.00;1.80;;;;;;;;;;5089520;28;20200;-25
2022/06/24 03:12:26;;;;;;;2.72;1.90;;;;;;;;;;5057712;28;20201;-29
2022/06/24 03:14:53;;;;;;;3.55;1.50;;;;;;;;;;5072495;28;20297;-26
2022/06/24 03:17:22;;;;;;;3.13;1.60;;;;;;;;;;5083961;28;20287;-29
2022/06/24 03:19:49;;;;;;;2.78;1.67;;;;;;;;;;5071660;28;20605;-28
2022/06/24 03:22:16;;;;;;;2.47;1.70;;;;;;;;;;5085526;28;20229;-26
2022/06/24 03:24:43;;;;;;;4.73;1.80;;;;;;;;;;5071637;28;20201;-28
2022/06/24 03:27:10;;;;;;;6.77;2.10;;;;;;;;;;5067721;28;20229;-31
2022/06/24 03:29:37;;;;;;;2.13;1.33;;;;;;;;;;5068503;28;20223;-30
2022/06/24 03:32:05;;;;;;;2.77;1.20;;;;;;;;;;5075824;28;20197;-30
2022/06/24 03:34:33;;;;;;;2.07;1.40;;;;;;;;;;5063478;28;20289;-29
2022/06/24 03:37:01;;;;;;;2.63;1.17;;;;;;;;;;5089994;28;20228;-26
2022/06/24 03:39:28;;;;;;;2.10;1.90;;;;;;;;;;5090218;28;20196;-30
2022/06/24 03:41:55;;;;;;;3.47;1.73;;;;;;;;;;5087178;28;20208;-30
2022/06/24 03:44:22;;;;;;;4.45;1.55;;;;;;;;;;5059519;28;20218;-31
2022/06/24 03:46:49;;;;;;;2.87;1.90;;;;;;;;;;5085984;28;20222;-29
2022/06/24 03:49:19;;;;;;;20.33;2.10;;;;;;;;;;5069001;28;20203;-30
2022/06/24 03:51:47;;;;;;;5.57;1.60;;;;;;;;;;5089936;28;20257;-29
2022/06/24 03:54:14;;;;;;;3.27;1.57;;;;;;;;;;5092074;28;20269;-26
2022/06/24 03:56:42;;;;;;;4.43;1.40;;;;;;;;;;5071301;28;20259;-31
2022/06/24 03:59:09;;;;;;;5.50;2.10;;;;;;;;;;5072042;28;20200;-27
2022/06/24 04:01:36;;;;;;;3.23;1.73;;;;;;;;;;5089691;28;20208;-25
2022/06/24 04:04:03;;;;;;;3.90;1.47;;;;;;;;;;5073958;28;20228;-29
2022/06/24 04:06:30;;;;;;;2.63;1.57;;;;;;;;;;5068113;28;20228;-27
2022/06/24 04:08:59;;;;;;;3.75;1.70;;;;;;;;;;5072581;28;20205;-25
2022/06/24 04:11:26;;;;;;;1.90;1.47;;;;;;;;;;5062145;28;20209;-27
2022/06/24 04:13:53;;;;;;;3.63;1.63;;;;;;;;;;5078837;28;20212;-25
2022/06/24 04:16:20;;;;;;;1.50;1.40;;;;;;;;;;5087612;28;20216;-24
2022/06/24 04:18:48;;;;;;;4.93;1.53;;;;;;;;;;5071729;28;20212;-27
2022/06/24 04:21:16;;;;;;;3.40;1.50;;;;;;;;;;5074221;28;20203;-27
2022/06/24 04:23:43;;;;;;;4.23;1.80;;;;;;;;;;5092033;28;20223;-28
2022/06/24 04:26:12;;;;;;;2.57;1.80;;;;;;;;;;5082017;28;20217;-26
2022/06/24 04:28:40;;;;;;;2.20;1.43;;;;;;;;;;5066048;28;20206;-30
2022/06/24 04:31:07;;;;;;;3.53;1.43;;;;;;;;;;5075704;28;20216;-23
2022/06/24 04:33:34;;;;;;;3.93;1.80;;;;;;;;;;5069605;28;20197;-27
2022/06/24 04:36:01;;;;;;;1.93;1.50;;;;;;;;;;5080862;28;20642;-28
2022/06/24 04:38:28;;;;;;;2.83;1.37;;;;;;;;;;5078503;28;20241;-27
2022/06/24 04:40:55;;;;;;;3.37;1.40;;;;;;;;;;5074508;28;20206;-27
2022/06/24 04:43:24;;;;;;;6.10;1.70;;;;;;;;;;5092728;28;20228;-26
2022/06/24 04:45:51;;;;;;;1.60;1.50;;;;;;;;;;5084669;28;20676;-30
2022/06/24 04:48:18;;;;;;;4.53;1.97;;;;;;;;;;5070551;28;20205;-27
2022/06/24 04:50:45;;;;;;;4.07;2.23;;;;;;;;;;5089040;28;20204;-26
2022/06/24 04:53:12;;;;;;;3.17;2.00;;;;;;;;;;5081782;28;20197;-29
2022/06/24 04:55:40;;;;;;;2.73;2.00;;;;;;;;;;5072925;28;20209;-31
2022/06/24 04:58:07;;;;;;;6.10;3.27;;;;;;;;;;5059941;28;20201;-26
2022/06/24 05:00:35;;;;;;;7.15;2.90;;;;;;;;;;5078758;28;20199;-31
2022/06/24 05:03:02;;;;;;;3.00;2.40;;;;;;;;;;5071767;28;20228;-27
2022/06/24 05:05:29;;;;;;;6.97;2.90;;;;;;;;;;5073049;28;20236;-24
2022/06/24 05:07:56;;;;;;;10.63;3.07;;;;;;;;;;5075127;28;20221;-26
2022/06/24 05:10:24;;;;;;;7.47;3.03;;;;;;;;;;5075183;28;20663;-27
2022/06/24 05:12:51;;;;;;;5.45;2.80;;;;;;;;;;5057660;28;20202;-26
2022/06/24 05:15:18;;;;;;;5.32;2.72;;;;;;;;;;5084190;28;20204;-28
2022/06/24 05:17:46;;;;;;;4.90;2.80;;;;;;;;;;5076498;28;20237;-29
2022/06/24 05:20:14;;;;;;;3.50;2.60;;;;;;;;;;5073284;28;20228;-26
2022/06/24 05:22:41;;;;;;;5.88;2.97;;;;;;;;;;5091680;28;20258;-29
2022/06/24 05:25:08;;;;;;;7.43;2.80;;;;;;;;;;5094342;28;20654;-27
2022/06/24 05:27:35;;;;;;;3.33;2.70;;;;;;;;;;5064537;28;20256;-28
2022/06/24 05:30:02;;;;;;;3.17;2.40;;;;;;;;;;5078892;28;20194;-29
2022/06/24 05:32:29;;;;;;;4.20;1.88;;;;;;;;;;5068903;28;20203;-28
2022/06/24 05:34:58;;;;;;;4.82;2.13;;;;;;;;;;5077295;28;20203;-28
2022/06/24 05:37:25;;;;;;;3.70;1.88;;;;;;;;;;5080001;28;20215;-30
2022/06/24 05:39:52;;;;;;;2.97;1.95;;;;;;;;;;5071588;28;20210;-26
2022/06/24 05:42:19;;;;;;;2.38;1.90;;;;;;;;;;5067585;28;20236;-30
2022/06/24 05:44:47;;;;;;;2.50;2.30;;;;;;;;;;5084927;28;20234;-25
2022/06/24 05:47:14;;;;;;;3.28;2.08;;;;;;;;;;5090908;28;20238;-25
2022/06/24 05:49:41;;;;;;;4.03;2.25;;;;;;;;;;5078874;28;20235;-29
2022/06/24 05:52:09;;;;;;;2.22;1.73;;;;;;;;;;5084595;28;20201;-29
2022/06/24 05:57:21;;;;;;;3.47;2.10;;;;;;;;;;5085247;28;20227;-27
2022/06/24 05:59:48;;;;;;;2.40;1.92;;;;;;;;;;5059946;28;20284;-26
2022/06/24 06:02:18;;;;;;;3.95;1.65;;;;;;;;;;5081393;28;20196;-29
2022/06/24 06:04:45;;;;;;;2.80;1.90;;;;;;;;;;5075581;28;20278;-25
2022/06/24 06:07:14;;;;;;;3.22;1.85;;;;;;;;;;5087105;28;20227;-24
2022/06/24 06:09:42;;;;;;;2.58;1.80;;;;;;;;;;5072511;28;20682;-25
2022/06/24 06:12:09;;;;;;;1.77;1.63;;;;;;;;;;5068392;28;20210;-25
2022/06/24 06:14:36;;;;;;;3.40;1.77;;;;;;;;;;5085199;28;20211;-29
2022/06/24 06:17:04;;;;;;;3.63;1.95;;;;;;;;;;5091022;28;20735;-27
2022/06/24 06:19:32;;;;;;;3.10;1.70;;;;;;;;;;5281913;22;1064281;-33
2022/06/24 06:21:59;;;;;;;5.82;2.00;;;;;;;;;;5043197;28;20760;-34
2022/06/24 06:24:28;;;;;;;5.75;2.00;;;;;;;;;;5051317;28;20222;-31
2022/06/24 06:26:55;;;;;;;3.00;1.80;;;;;;;;;;5047577;28;20232;-33
2022/06/24 06:29:22;;;;;;;2.15;1.45;;;;;;;;;;5042058;28;20209;-33
2022/06/24 06:31:50;;;;;;;3.85;1.63;;;;;;;;;;5052464;28;20296;-30
2022/06/24 06:34:19;;;;;;;5.43;1.75;;;;;;;;;;5046097;28;20219;-31
2022/06/24 06:36:46;;;;;;;5.28;1.60;;;;;;;;;;5051861;28;20225;-32
2022/06/24 06:39:13;;;;;;;2.08;1.70;;;;;;;;;;5053653;28;20205;-34
2022/06/24 06:41:46;;;;;;;3.15;1.80;;;;;;;;;;5042787;28;20208;-31
2022/06/24 06:44:13;;;;;;;2.85;1.75;;;;;;;;;;5048690;28;20698;-32
2022/06/24 06:46:40;;;;;;;4.75;1.60;;;;;;;;;;5052225;28;20228;-31
2022/06/24 06:49:07;;;;;;;3.33;1.60;;;;;;;;;;5045979;28;20966;-30
2022/06/24 06:51:35;;;;;;;3.25;1.80;;;;;;;;;;5052828;28;20213;-33
2022/06/24 06:54:02;;;;;;;3.35;1.30;;;;;;;;;;5053977;28;20202;-33
2022/06/24 06:56:29;;;;;;;4.00;1.63;;;;;;;;;;5048674;28;20253;-32
2022/06/24 06:58:57;;;;;;;3.72;1.90;;;;;;;;;;5046060;28;20206;-35
2022/06/24 07:01:24;;;;;;;3.55;1.40;;;;;;;;;;5053622;28;20209;-32
2022/06/24 07:03:51;;;;;;;4.82;1.40;;;;;;;;;;5049177;28;20236;-31
2022/06/24 07:06:19;;;;;;;4.82;1.58;;;;;;;;;;5053264;28;20606;-33
2022/06/24 07:08:46;;;;;;;3.85;1.58;;;;;;;;;;5053602;28;20213;-33
2022/06/24 07:11:13;;;;;;;3.08;1.60;;;;;;;;;;5053728;28;20206;-33
2022/06/24 07:13:40;;;;;;;5.03;1.92;;;;;;;;;;5043055;28;20207;-29
2022/06/24 07:16:10;;;;;;;4.90;1.52;;;;;;;;;;5052881;28;20718;-35
2022/06/24 07:18:38;;;;;;;5.72;1.33;;;;;;;;;;5049421;28;20232;-31
2022/06/24 07:21:05;;;;;;;3.92;1.30;;;;;;;;;;5049705;28;20221;-33
2022/06/24 07:23:32;;;;;;;2.95;1.35;;;;;;;;;;5052936;28;20217;-30
2022/06/24 07:25:59;;;;;;;3.72;1.38;;;;;;;;;;5051825;28;20232;-35
2022/06/24 07:28:27;;;;;;;3.72;1.30;;;;;;;;;;5043848;28;20202;-32
2022/06/24 07:30:54;;;;;;;2.92;1.23;;;;;;;;;;5045550;28;20201;-32
2022/06/24 07:33:26;;;;;;;3.13;1.13;;;;;;;;;;5045494;28;20206;-33
2022/06/24 07:35:53;;;;;;;3.58;1.48;;;;;;;;;;5051591;28;20206;-29
2022/06/24 07:38:20;;;;;;;2.58;1.50;;;;;;;;;;5052991;28;20201;-31
2022/06/24 07:40:47;;;;;;;3.40;1.25;;;;;;;;;;5049498;28;20302;-31
2022/06/24 07:43:15;;;;;;;4.35;1.65;;;;;;;;;;5046675;28;20202;-33
2022/06/24 07:45:42;;;;;;;1.58;1.25;;;;;;;;;;5051759;28;20204;-31
2022/06/24 07:48:09;;;;;;;3.80;1.50;;;;;;;;;;5047433;28;20201;-33
2022/06/24 07:50:38;;;;;;;4.68;1.70;;;;;;;;;;5050134;28;20227;-30
2022/06/24 07:53:05;;;;;;;4.82;1.30;;;;;;;;;;5052740;28;20202;-34
2022/06/24 07:58:16;;;;;;;3.20;0.98;;;;;;;;;;5047382;28;20343;-34
2022/06/24 08:00:44;;;;;;;2.08;1.25;;;;;;;;;;5052868;28;20680;-32
2022/06/24 08:03:11;;;;;;;1.67;1.17;;;;;;;;;;5050549;28;20197;-33
2022/06/24 08:05:40;;;;;;;3.33;1.30;;;;;;;;;;5052509;28;20248;-31
2022/06/24 08:08:07;;;;;;;3.10;1.48;;;;;;;;;;5054772;28;20667;-31
2022/06/24 08:10:34;;;;;;;2.28;1.00;;;;;;;;;;5046951;28;20229;-31
2022/06/24 08:13:01;;;;;;;1.63;1.20;;;;;;;;;;5050999;28;20213;-34
2022/06/24 08:15:28;;;;;;;2.17;1.20;;;;;;;;;;5056110;28;20198;-32
2022/06/24 08:17:55;;;;;;;3.80;1.30;;;;;;;;;;5050830;28;20221;-33
2022/06/24 08:20:23;;;;;;;1.40;1.20;;;;;;;;;;5049130;28;20215;-31
2022/06/24 08:22:51;;;;;;;3.72;1.05;;;;;;;;;;5056499;28;20201;-33
2022/06/24 08:25:18;;;;;;;4.45;1.27;;;;;;;;;;5054939;28;20221;-35
2022/06/24 08:27:45;;;;;;;2.50;1.50;;;;;;;;;;5053107;28;20230;-33
2022/06/24 08:30:13;;;;;;;4.38;1.17;;;;;;;;;;5056105;28;20289;-28
2022/06/24 08:32:40;;;;;;;3.75;1.02;;;;;;;;;;5052763;28;20209;-33
2022/06/24 08:35:08;;;;;;;2.55;1.20;;;;;;;;;;5055205;28;20212;-29
2022/06/24 08:37:35;;;;;;;1.27;1.00;;;;;;;;;;5056203;28;20236;-33
2022/06/24 08:40:04;;;;;;;4.05;1.80;;;;;;;;;;5056299;28;20305;-34
2022/06/24 08:42:32;;;;;;;2.55;0.90;;;;;;;;;;5053260;28;20209;-29
2022/06/24 08:45:00;;;;;;;1.58;1.10;;;;;;;;;;5055255;28;20221;-29
2022/06/24 08:47:27;;;;;;;1.25;0.95;;;;;;;;;;5053145;28;20290;-31
2022/06/24 08:49:55;;;;;;;3.63;1.00;;;;;;;;;;5052033;28;20207;-34
2022/06/24 08:52:22;;;;;;;2.67;1.30;;;;;;;;;;5055958;28;20203;-30
2022/06/24 08:54:50;;;;;;;2.42;1.20;;;;;;;;;;5054439;28;20266;-30
2022/06/24 08:57:19;;;;;;;1.85;1.35;;;;;;;;;;5045648;28;20225;-33
2022/06/24 08:59:46;;;;;;;4.97;1.33;;;;;;;;;;5053954;28;20219;-31
2022/06/24 09:02:14;;;;;;;1.92;1.20;;;;;;;;;;5051755;28;20250;-30
2022/06/24 09:04:47;;;;;;;1.55;1.15;;;;;;;;;;5045279;28;20258;-31
2022/06/24 09:07:25;;;;;;;5.30;1.33;;;;;;;;;;5055710;28;20218;-31
2022/06/24 09:09:59;;;;;;;1.85;1.30;;;;;;;;;;5054567;28;20204;-30
2022/06/24 09:12:30;;;;;;;2.90;1.45;;;;;;;;;;5053583;28;20200;-30
2022/06/24 09:15:02;;;;;;;3.67;1.50;;;;;;;;;;5047163;28;20192;-31
2022/06/24 09:17:30;;;;;;;2.17;1.15;;;;;;;;;;5052130;28;20229;-33
2022/06/24 09:20:04;;;;;;;3.38;1.50;;;;;;;;;;5046707;28;20216;-29
2022/06/24 09:22:31;;;;;;;4.90;1.33;;;;;;;;;;5054964;28;20193;-29
2022/06/24 09:25:00;;;;;;;2.05;1.33;;;;;;;;;;5053451;28;20331;-32
2022/06/24 09:27:27;;;;;;;6.60;1.30;;;;;;;;;;5053805;28;20240;-32
2022/06/24 09:29:56;;;;;;;4.28;1.33;;;;;;;;;;5054432;28;20198;-31
2022/06/24 09:32:23;;;;;;;3.15;1.50;;;;;;;;;;5052056;28;20642;-34
2022/06/24 09:35:03;;;;;;;3.47;1.58;;;;;;;;;;5053142;28;20212;-32
2022/06/24 09:37:37;;;;;;;2.80;1.30;;;;;;;;;;5053608;28;20710;-31
2022/06/24 09:40:17;;;;;;;2.95;1.55;;;;;;;;;;5053923;28;20202;-32
2022/06/24 09:42:44;;;;;;;4.57;1.67;;;;;;;;;;5045907;28;20210;-29
2022/06/24 09:45:13;;;;;;;1.45;1.10;;;;;;;;;;5053793;28;20217;-31
2022/06/24 09:47:40;;;;;;;1.13;1.02;;;;;;;;;;5047829;28;20227;-32
2022/06/24 09:50:08;;;;;;;4.55;1.10;;;;;;;;;;5051474;28;20655;-31
2022/06/24 09:52:35;;;;;;;2.80;1.17;;;;;;;;;;5054704;28;20198;-32
2022/06/24 09:55:03;;;;;;;5.82;1.10;;;;;;;;;;5054426;28;20663;-32
2022/06/24 09:57:31;;;;;;;5.40;1.45;;;;;;;;;;5049884;28;20233;-31
2022/06/24 10:02:45;;;;;;;6.70;1.95;;;;;;;;;;5048824;28;20619;-30
2022/06/24 10:05:14;;;;;;;1.48;1.10;;;;;;;;;;5047639;28;20228;-34
2022/06/24 10:07:45;;;;;;;1.42;1.13;;;;;;;;;;5054356;28;20228;-32
2022/06/24 10:10:12;;;;;;;2.85;1.33;;;;;;;;;;5054358;28;20281;-33
2022/06/24 10:12:40;;;;;;;2.33;1.17;;;;;;;;;;5047660;28;20209;-32
2022/06/24 10:15:08;;;;;;;3.70;1.25;;;;;;;;;;5049268;28;20213;-33
2022/06/24 10:17:36;;;;;;;1.35;0.80;;;;;;;;;;5051628;28;20225;-34
2022/06/24 10:20:05;;;;;;;2.55;1.00;;;;;;;;;;5046373;28;20208;-35
2022/06/24 10:22:39;;;;;;;3.42;1.77;;;;;;;;;;5053985;28;20224;-33
2022/06/24 10:25:07;;;;;;;4.00;1.10;;;;;;;;;;5053786;28;20228;-32
2022/06/24 10:27:49;;;;;;;1.73;0.90;;;;;;;;;;5044266;28;20240;-31
2022/06/24 10:30:36;;;;;;;3.25;1.23;;;;;;;;;;5047298;28;20204;-29
2022/06/24 10:33:13;;;;;;;1.98;1.48;;;;;;;;;;5037991;28;20211;-32
2022/06/24 10:35:55;;;;;;;2.03;1.10;;;;;;;;;;5049963;28;20661;-34
2022/06/24 10:38:24;;;;;;;1.55;0.90;;;;;;;;;;5050041;28;20243;-29
2022/06/24 10:40:51;;;;;;;1.30;1.15;;;;;;;;;;5052863;28;20604;-30
2022/06/24 10:43:33;;;;;;;2.08;1.33;;;;;;;;;;5047724;28;20212;-32
2022/06/24 10:46:10;;;;;;;2.88;1.45;;;;;;;;;;5051292;28;20282;-34
2022/06/24 10:48:47;;;;;;;2.95;1.58;;;;;;;;;;5042364;28;20213;-34
2022/06/24 10:51:14;;;;;;;3.55;1.20;;;;;;;;;;5052519;28;20647;-34
2022/06/24 10:54:00;;;;;;;1.77;1.10;;;;;;;;;;5052963;28;20204;-32
2022/06/24 10:56:40;;;;;;;1.65;1.00;;;;;;;;;;5053141;28;20254;-31
2022/06/24 10:59:07;;;;;;;2.70;1.20;;;;;;;;;;5047137;28;20206;-33
2022/06/24 11:01:34;;;;;;;4.00;1.35;;;;;;;;;;5049392;28;20196;-33
2022/06/24 11:04:02;;;;;;;4.32;1.38;;;;;;;;;;5039507;28;20204;-31
2022/06/24 11:06:30;;;;;;;3.20;1.02;;;;;;;;;;5049445;28;20585;-30
2022/06/24 11:09:05;;;;;;;1.13;0.90;;;;;;;;;;5053418;28;20208;-34
2022/06/24 11:11:32;;;;;;;3.08;1.35;;;;;;;;;;5045646;28;20251;-32
2022/06/24 11:14:02;;;;;;;1.33;1.23;;;;;;;;;;5037135;28;20215;-30
2022/06/24 11:16:29;;;;;;;1.23;1.10;;;;;;;;;;5052811;28;20232;-32
2022/06/24 11:18:58;;;;;;;1.70;1.10;;;;;;;;;;5042878;28;20639;-30
2022/06/24 11:21:25;;;;;;;1.17;1.10;;;;;;;;;;5049469;28;20294;-33
2022/06/24 11:23:55;;;;;;;1.70;1.00;;;;;;;;;;5052823;28;20204;-30
2022/06/24 11:26:22;;;;;;;1.85;0.88;;;;;;;;;;5048195;28;20228;-32
2022/06/24 11:28:51;;;;;;;1.40;1.10;;;;;;;;;;5048248;28;20215;-33
2022/06/24 11:31:20;;;;;;;1.55;1.00;;;;;;;;;;5052522;28;20319;-33
2022/06/24 11:33:48;;;;;;;1.45;1.10;;;;;;;;;;5039823;28;20217;-33
2022/06/24 11:36:15;;;;;;;2.28;0.98;;;;;;;;;;5049412;28;20304;-35
2022/06/24 11:38:52;;;;;;;0.82;0.82;;;;;;;;;;5052664;28;20202;-31
2022/06/24 11:41:23;;;;;;;0.80;0.80;;;;;;;;;;5045656;28;20263;-31
2022/06/24 11:43:51;;;;;;;3.38;1.02;;;;;;;;;;5050068;28;20327;-33
2022/06/24 11:46:20;;;;;;;1.13;1.00;;;;;;;;;;5052438;28;20232;-32
2022/06/24 11:48:47;;;;;;;2.65;1.10;;;;;;;;;;5044054;28;20205;-33
2022/06/24 11:51:21;;;;;;;1.98;1.02;;;;;;;;;;5052270;28;20232;-28
2022/06/24 11:53:57;;;;;;;2.30;1.05;;;;;;;;;;5052803;28;20205;-30
2022/06/24 11:56:27;;;;;;;3.53;1.20;;;;;;;;;;5045409;28;20226;-32
2022/06/24 11:58:54;;;;;;;2.83;1.15;;;;;;;;;;5051899;28;20206;-34
2022/06/24 12:01:23;;;;;;;2.33;0.90;;;;;;;;;;5052904;28;20211;-30
2022/06/24 12:03:50;;;;;;;1.70;1.00;;;;;;;;;;5042365;28;20206;-34
2022/06/24 12:06:18;;;;;;;0.77;0.77;;;;;;;;;;5049361;28;20620;-33
2022/06/24 12:08:45;;;;;;;1.58;1.00;;;;;;;;;;5052509;28;20198;-33
2022/06/24 12:11:16;;;;;;;2.42;1.17;;;;;;;;;;5052614;28;20729;-32
2022/06/24 12:13:43;;;;;;;2.67;1.17;;;;;;;;;;5046149;28;20292;-35
2022/06/24 12:16:11;;;;;;;1.30;1.13;;;;;;;;;;5050384;28;20229;-32
2022/06/24 12:21:10;;;;;;;1.40;1.27;;;;;;;;;;5030058;28;20209;-30
2022/06/24 12:23:38;;;;;;;1.88;1.25;;;;;;;;;;5031876;28;20196;-33
2022/06/24 12:26:09;;;;;;;1.88;1.25;;;;;;;;;;5027309;28;20229;-30
2022/06/24 12:28:36;;;;;;;4.72;1.40;;;;;;;;;;5030615;28;20212;-32
2022/06/24 12:31:04;;;;;;;2.42;1.35;;;;;;;;;;5031858;28;20212;-36
2022/06/24 12:33:32;;;;;;;2.25;1.20;;;;;;;;;;5024385;28;20205;-38
2022/06/24 12:36:04;;;;;;;1.63;1.50;;;;;;;;;;5027477;28;20225;-38
2022/06/24 12:38:32;;;;;;;1.50;1.23;;;;;;;;;;5032505;28;20239;-33
2022/06/24 12:41:16;;;;;;;3.95;1.33;;;;;;;;;;5032661;28;20221;-30
2022/06/24 12:43:53;;;;;;;2.20;1.30;;;;;;;;;;5022435;28;20217;-32
2022/06/24 12:46:20;;;;;;;3.38;1.20;;;;;;;;;;5031794;28;20222;-33
2022/06/24 12:51:32;;;;;;;1.90;1.30;;;;;;;;;;5029547;28;20464;-31
2022/06/24 12:54:01;;;;;;;3.35;1.35;;;;;;;;;;5033000;28;20209;-37
2022/06/24 12:56:30;;;;;;;4.38;1.70;;;;;;;;;;5035375;28;20236;-33
2022/06/24 12:58:57;;;;;;;2.33;1.50;;;;;;;;;;5026713;28;20205;-36
2022/06/24 13:01:24;;;;;;;3.70;1.60;;;;;;;;;;5035339;28;20207;-36
2022/06/24 13:03:51;;;;;;;4.18;1.60;;;;;;;;;;5022126;28;20256;-34
2022/06/24 13:06:24;;;;;;;1.70;1.60;;;;;;;;;;5031814;28;20237;-35
2022/06/24 13:08:51;;;;;;;2.58;1.25;;;;;;;;;;5035358;28;20206;-30
2022/06/24 13:11:20;;;;;;;2.65;1.40;;;;;;;;;;5035175;28;20211;-38
2022/06/24 13:13:47;;;;;;;3.75;1.73;;;;;;;;;;5027207;28;20276;-34
2022/06/24 13:16:14;;;;;;;1.60;1.50;;;;;;;;;;5029879;28;20232;-29
2022/06/24 13:18:42;;;;;;;6.38;1.80;;;;;;;;;;5025816;28;20211;-30
2022/06/24 13:21:09;;;;;;;5.75;1.77;;;;;;;;;;5034694;28;20207;-36
2022/06/24 13:23:36;;;;;;;5.18;1.90;;;;;;;;;;5034611;28;20209;-37
2022/06/24 13:26:03;;;;;;;4.47;1.95;;;;;;;;;;5024944;28;20239;-38
2022/06/24 13:28:32;;;;;;;6.15;2.28;;;;;;;;;;5025117;28;20214;-38
2022/06/24 13:31:04;;;;;;;6.70;2.70;;;;;;;;;;5027047;28;20204;-33
2022/06/24 13:33:31;;;;;;;6.82;1.90;;;;;;;;;;5025074;28;20214;-37
2022/06/24 13:35:58;;;;;;;4.47;2.33;;;;;;;;;;5029764;28;20220;-35
2022/06/24 13:38:25;;;;;;;5.68;2.45;;;;;;;;;;5034860;28;20209;-33
2022/06/24 13:40:52;;;;;;;4.65;2.20;;;;;;;;;;5034774;28;20214;-33
2022/06/24 13:43:20;;;;;;;4.32;1.95;;;;;;;;;;5026741;28;20206;-39
2022/06/24 13:45:49;;;;;;;4.97;1.88;;;;;;;;;;5028755;28;20323;-32
2022/06/24 13:48:16;;;;;;;4.13;2.20;;;;;;;;;;5021995;28;20204;-32
2022/06/24 13:50:43;;;;;;;3.83;1.92;;;;;;;;;;5028909;28;20215;-31
2022/06/24 13:53:10;;;;;;;6.68;2.10;;;;;;;;;;5034458;28;20203;-34
2022/06/24 13:55:37;;;;;;;6.85;2.38;;;;;;;;;;5033511;28;20200;-33
2022/06/24 13:58:04;;;;;;;5.50;2.00;;;;;;;;;;5018717;28;20202;-33
2022/06/24 14:00:31;;;;;;;4.60;1.80;;;;;;;;;;5033178;28;20199;-33
2022/06/24 14:03:00;;;;;;;3.55;1.70;;;;;;;;;;5014745;28;20206;-37
2022/06/24 14:05:27;;;;;;;5.57;2.00;;;;;;;;;;5026394;28;20207;-32
2022/06/24 14:07:54;;;;;;;3.65;2.15;;;;;;;;;;5033572;28;20224;-29
2022/06/24 14:10:21;;;;;;;3.10;2.17;;;;;;;;;;5034314;28;20217;-34
2022/06/24 14:12:48;;;;;;;5.75;2.03;;;;;;;;;;5016889;28;20321;-31
2022/06/24 14:15:16;;;;;;;2.28;1.77;;;;;;;;;;5028186;28;20204;-37
2022/06/24 14:17:43;;;;;;;3.97;1.67;;;;;;;;;;5027983;28;20223;-30
2022/06/24 14:20:12;;;;;;;4.38;1.88;;;;;;;;;;5023332;28;20222;-36
2022/06/24 14:24:31;;;;;;;6.07;1.83;;;;;;;;;;5033771;28;20209;-29
2022/06/24 14:25:26;;;;;;;3.45;1.75;;;;;;;;;;5033414;28;20269;-31
2022/06/24 14:27:53;;;;;;;6.18;1.70;;;;;;;;;;5028109;28;20249;-34
2022/06/24 14:30:21;;;;;;;2.80;1.52;;;;;;;;;;5029498;28;20199;-43
2022/06/24 14:32:48;;;;;;;4.45;1.80;;;;;;;;;;5026234;28;20207;-37
2022/06/24 14:35:16;;;;;;;3.92;1.67;;;;;;;;;;5027471;28;20206;-36
2022/06/24 14:40:28;;;;;;;2.28;1.60;;;;;;;;;;5029919;28;20202;-34
2022/06/24 14:42:55;;;;;;;4.90;1.92;;;;;;;;;;5032989;28;20206;-36
2022/06/24 14:45:22;;;;;;;2.15;1.73;;;;;;;;;;5032833;28;20202;-34
2022/06/24 14:47:49;;;;;;;5.13;1.80;;;;;;;;;;5027832;28;20232;-34
2022/06/24 14:50:18;;;;;;;3.67;1.75;;;;;;;;;;5024301;28;20206;-34
2022/06/24 14:52:45;;;;;;;3.00;1.80;;;;;;;;;;5033184;28;20202;-37
2022/06/24 14:55:12;;;;;;;2.17;1.48;;;;;;;;;;5033423;28;20219;-37
2022/06/24 14:57:39;;;;;;;2.05;1.52;;;;;;;;;;5027581;28;20231;-35
2022/06/24 15:00:07;;;;;;;1.20;1.10;;;;;;;;;;5032701;28;20199;-38
2022/06/24 15:02:34;;;;;;;1.55;1.45;;;;;;;;;;5029061;28;20203;-36
2022/06/24 15:05:01;;;;;;;2.22;1.52;;;;;;;;;;5025084;28;20244;-34
2022/06/24 15:07:30;;;;;;;1.52;1.17;;;;;;;;;;5032671;28;20222;-31
2022/06/24 15:09:57;;;;;;;1.58;1.15;;;;;;;;;;5031243;28;20209;-36
2022/06/24 15:12:24;;;;;;;2.45;1.10;;;;;;;;;;5026899;28;20229;-34
2022/06/24 15:14:51;;;;;;;1.27;0.93;;;;;;;;;;5031675;28;20206;-33